createdAt,value
2023-02-22T00:01:36.274Z,56.34
2023-02-22T00:03:39.132Z,56.92
2023-02-22T00:05:40.569Z,56.39
2023-02-22T00:07:42.165Z,56.51
2023-02-22T00:09:43.465Z,56.58
2023-02-22T00:11:46.483Z,56.67
2023-02-22T00:13:50.397Z,57.10
2023-02-22T00:15:51.747Z,57.09
2023-02-22T00:17:53.051Z,57.11
2023-02-22T00:19:54.351Z,57.37
2023-02-22T00:21:55.684Z,57.62
2023-02-22T00:23:56.986Z,57.58
2023-02-22T00:25:58.314Z,58.03
2023-02-22T00:27:59.655Z,58.13
2023-02-22T00:30:00.974Z,58.29
2023-02-22T00:32:02.462Z,58.63
2023-02-22T00:34:03.880Z,59.34
2023-02-22T00:36:05.182Z,58.93
2023-02-22T00:38:06.523Z,59.10
2023-02-22T00:40:08.464Z,58.69
2023-02-22T00:42:09.853Z,58.92
2023-02-22T00:44:11.712Z,59.15
2023-02-22T00:46:13.081Z,59.01
2023-02-22T00:48:14.418Z,59.24
2023-02-22T00:50:15.749Z,58.17
2023-02-22T00:52:17.270Z,57.40
2023-02-22T00:54:20.105Z,57.03
2023-02-22T00:56:21.505Z,57.74
2023-02-22T00:58:22.857Z,57.35
2023-02-22T01:00:24.208Z,57.69
2023-02-22T01:02:25.568Z,57.35
2023-02-22T01:04:26.964Z,57.96
2023-02-22T01:06:29.356Z,57.91
2023-02-22T01:08:32.638Z,58.00
2023-02-22T01:10:33.952Z,57.64
2023-02-22T01:12:35.283Z,57.95
2023-02-22T01:14:36.584Z,58.27
2023-02-22T01:16:37.943Z,58.07
2023-02-22T01:18:39.296Z,58.18
2023-02-22T01:20:40.683Z,57.81
2023-02-22T01:22:42.225Z,58.02
2023-02-22T01:24:43.624Z,57.32
2023-02-22T01:26:45.482Z,57.45
2023-02-22T01:28:46.783Z,57.47
2023-02-22T01:30:48.180Z,57.63
2023-02-22T01:32:51.133Z,57.15
2023-02-22T01:34:52.505Z,57.55
2023-02-22T01:36:53.801Z,57.35
2023-02-22T01:38:55.094Z,57.42
2023-02-22T01:40:56.412Z,57.54
2023-02-22T01:42:57.809Z,57.93
2023-02-22T01:44:59.199Z,58.00
2023-02-22T01:47:00.595Z,57.70
2023-02-22T01:49:02.227Z,57.93
2023-02-22T01:51:03.649Z,57.41
2023-02-22T01:53:04.946Z,57.92
2023-02-22T01:55:06.283Z,57.74
2023-02-22T01:57:07.582Z,58.12
2023-02-22T01:59:08.920Z,57.93
2023-02-22T02:01:10.364Z,57.99
2023-02-22T02:03:11.704Z,58.28
2023-02-22T02:05:13.021Z,57.73
2023-02-22T02:07:14.377Z,58.09
2023-02-22T02:09:15.675Z,58.27
2023-02-22T02:11:17.168Z,57.94
2023-02-22T02:13:18.601Z,58.28
2023-02-22T02:15:19.934Z,58.31
2023-02-22T02:17:21.269Z,57.99
2023-02-22T02:19:22.604Z,57.88
2023-02-22T02:21:24.262Z,58.34
2023-02-22T02:23:25.503Z,58.24
2023-02-22T02:25:27.857Z,57.82
2023-02-22T02:27:29.202Z,58.35
2023-02-22T02:29:30.494Z,58.21
2023-02-22T02:31:31.893Z,57.73
2023-02-22T02:33:33.361Z,58.20
2023-02-22T02:35:34.699Z,58.06
2023-02-22T02:37:36.019Z,58.12
2023-02-22T02:39:37.319Z,58.08
2023-02-22T02:41:38.684Z,58.06
2023-02-22T02:43:40.042Z,58.39
2023-02-22T02:45:42.119Z,58.08
2023-02-22T02:47:43.451Z,58.16
2023-02-22T02:49:44.771Z,57.86
2023-02-22T02:51:46.109Z,57.92
2023-02-22T02:53:47.550Z,57.64
2023-02-22T02:55:48.855Z,57.72
2023-02-22T02:57:50.145Z,57.78
2023-02-22T02:59:51.668Z,57.36
2023-02-22T03:01:52.979Z,57.28
2023-02-22T03:03:54.288Z,57.60
2023-02-22T03:05:55.601Z,57.70
2023-02-22T03:07:56.971Z,58.09
2023-02-22T03:09:58.509Z,57.68
2023-02-22T03:12:02.318Z,57.95
2023-02-22T03:14:03.656Z,58.08
2023-02-22T03:16:05.015Z,58.50
2023-02-22T03:18:06.785Z,58.45
2023-02-22T03:20:09.709Z,57.82
2023-02-22T03:22:11.041Z,58.07
2023-02-22T03:24:12.418Z,58.17
2023-02-22T03:26:13.813Z,58.23
2023-02-22T03:28:15.160Z,58.32
2023-02-22T03:30:16.520Z,58.40
2023-02-22T03:32:17.894Z,58.08
2023-02-22T03:34:19.306Z,58.72
2023-02-22T03:36:20.642Z,58.83
2023-02-22T03:38:21.963Z,58.72
2023-02-22T03:40:26.086Z,58.88
2023-02-22T03:42:27.387Z,58.59
2023-02-22T03:44:28.900Z,59.13
2023-02-22T03:46:30.311Z,59.12
2023-02-22T03:48:31.685Z,59.05
2023-02-22T03:50:33.036Z,58.80
2023-02-22T03:52:34.932Z,58.64
2023-02-22T03:54:36.226Z,58.52
2023-02-22T03:56:37.556Z,58.24
2023-02-22T03:58:38.850Z,57.48
2023-02-22T04:00:44.513Z,57.64
2023-02-22T04:02:45.936Z,57.60
2023-02-22T04:04:47.374Z,56.78
2023-02-22T04:06:49.710Z,55.99
2023-02-22T04:08:51.089Z,55.75
2023-02-22T04:10:52.376Z,56.05
2023-02-22T04:12:54.089Z,55.36
2023-02-22T04:14:55.408Z,55.59
2023-02-22T04:16:56.753Z,55.30
2023-02-22T04:18:58.052Z,55.11
2023-02-22T04:20:59.340Z,55.12
2023-02-22T04:23:00.671Z,54.94
2023-02-22T04:25:02.171Z,54.82
2023-02-22T04:27:03.687Z,54.57
2023-02-22T04:29:05.024Z,54.73
2023-02-22T04:31:06.398Z,54.49
2023-02-22T04:33:07.741Z,54.57
2023-02-22T04:35:09.137Z,54.10
2023-02-22T04:37:10.494Z,54.71
2023-02-22T04:39:11.892Z,54.43
2023-02-22T04:41:13.185Z,54.52
2023-02-22T04:43:14.503Z,54.48
2023-02-22T04:45:15.840Z,54.77
2023-02-22T04:47:17.133Z,55.17
2023-02-22T04:49:18.438Z,54.96
2023-02-22T04:51:20.227Z,55.11
2023-02-22T04:53:21.525Z,55.08
2023-02-22T04:55:22.863Z,55.09
2023-02-22T04:57:24.150Z,55.46
2023-02-22T04:59:25.488Z,54.84
2023-02-22T05:01:26.829Z,55.24
2023-02-22T05:03:28.164Z,55.44
2023-02-22T05:05:29.526Z,55.17
2023-02-22T05:07:30.868Z,55.32
2023-02-22T05:09:32.276Z,55.35
2023-02-22T05:11:34.076Z,55.78
2023-02-22T05:13:35.474Z,55.53
2023-02-22T05:15:36.811Z,55.57
2023-02-22T05:17:38.139Z,55.93
2023-02-22T05:19:39.484Z,55.79
2023-02-22T05:21:40.822Z,55.74
2023-02-22T05:23:42.152Z,55.81
2023-02-22T05:25:43.458Z,55.38
2023-02-22T05:27:44.775Z,55.25
2023-02-22T05:29:46.149Z,55.58
2023-02-22T05:31:47.597Z,55.20
2023-02-22T05:33:49.036Z,55.15
2023-02-22T05:35:50.676Z,55.13
2023-02-22T05:37:52.043Z,54.90
2023-02-22T05:39:53.338Z,55.00
2023-02-22T05:41:54.656Z,54.64
2023-02-22T05:43:55.949Z,54.34
2023-02-22T05:45:57.239Z,54.26
2023-02-22T05:47:58.585Z,54.12
2023-02-22T05:49:59.872Z,54.21
2023-02-22T05:52:01.225Z,54.31
2023-02-22T05:54:02.520Z,53.80
2023-02-22T05:56:03.871Z,53.99
2023-02-22T05:58:05.912Z,53.84
2023-02-22T06:00:10.241Z,53.99
2023-02-22T06:02:11.730Z,53.91
2023-02-22T06:04:13.030Z,53.95
2023-02-22T06:06:14.385Z,53.84
2023-02-22T06:08:15.715Z,53.83
2023-02-22T06:10:17.026Z,53.69
2023-02-22T06:12:18.356Z,53.86
2023-02-22T06:14:22.482Z,54.20
2023-02-22T06:16:24.005Z,54.00
2023-02-22T06:18:26.707Z,54.24
2023-02-22T06:20:28.029Z,54.14
2023-02-22T06:22:29.324Z,54.39
2023-02-22T06:24:30.668Z,53.98
2023-02-22T06:26:31.959Z,54.54
2023-02-22T06:28:33.262Z,54.53
2023-02-22T06:30:34.673Z,54.33
2023-02-22T06:32:35.999Z,54.36
2023-02-22T06:34:37.355Z,54.28
2023-02-22T06:36:38.665Z,54.75
2023-02-22T06:38:39.976Z,54.54
2023-02-22T06:40:41.415Z,54.54
2023-02-22T06:42:42.708Z,54.26
2023-02-22T06:44:44.009Z,54.49
2023-02-22T06:46:45.314Z,54.45
2023-02-22T06:48:46.635Z,54.25
2023-02-22T06:50:47.931Z,54.79
2023-02-22T06:52:49.305Z,54.40
2023-02-22T06:54:50.605Z,54.30
2023-02-22T06:56:52.000Z,54.31
2023-02-22T06:58:53.295Z,54.30
2023-02-22T07:00:54.901Z,54.21
2023-02-22T07:02:56.222Z,54.44
2023-02-22T07:04:57.515Z,54.21
2023-02-22T07:06:58.841Z,54.55
2023-02-22T07:09:01.094Z,54.00
2023-02-22T07:11:02.439Z,54.42
2023-02-22T07:13:03.739Z,54.22
2023-02-22T07:15:05.031Z,54.12
2023-02-22T07:17:07.604Z,54.03
2023-02-22T07:19:09.910Z,53.86
2023-02-22T07:21:11.217Z,53.78
2023-02-22T07:23:12.528Z,53.55
2023-02-22T07:25:13.867Z,53.57
2023-02-22T07:27:15.195Z,53.29
2023-02-22T07:29:16.519Z,53.08
2023-02-22T07:31:18.301Z,53.34
2023-02-22T07:33:19.882Z,53.43
2023-02-22T07:35:21.183Z,53.27
2023-02-22T07:37:22.481Z,53.34
2023-02-22T07:39:23.777Z,53.24
2023-02-22T07:41:25.118Z,53.42
2023-02-22T07:43:26.454Z,53.56
2023-02-22T07:45:27.947Z,53.80
2023-02-22T07:47:29.261Z,53.41
2023-02-22T07:49:30.556Z,53.81
2023-02-22T07:51:31.855Z,53.47
2023-02-22T07:53:33.640Z,53.80
2023-02-22T07:55:34.956Z,53.57
2023-02-22T07:57:36.255Z,53.79
2023-02-22T07:59:37.549Z,53.77
2023-02-22T08:01:38.920Z,53.85
2023-02-22T08:03:40.292Z,53.83
2023-02-22T08:05:41.657Z,54.22
2023-02-22T08:07:43.304Z,53.79
2023-02-22T08:09:44.613Z,54.14
2023-02-22T08:11:45.912Z,53.69
2023-02-22T08:13:47.217Z,53.75
2023-02-22T08:15:48.515Z,53.75
2023-02-22T08:17:49.809Z,53.80
2023-02-22T08:19:51.108Z,53.85
2023-02-22T08:21:52.727Z,53.96
2023-02-22T08:23:56.842Z,54.07
2023-02-22T08:25:58.256Z,53.58
2023-02-22T08:28:02.224Z,53.67
2023-02-22T08:30:03.508Z,53.32
2023-02-22T08:32:04.953Z,53.62
2023-02-22T08:34:06.411Z,53.36
2023-02-22T08:36:07.703Z,53.18
2023-02-22T08:38:08.996Z,53.14
2023-02-22T08:40:10.972Z,53.28
2023-02-22T08:42:13.167Z,53.07
2023-02-22T08:44:14.459Z,52.66
2023-02-22T08:46:15.820Z,53.06
2023-02-22T08:48:17.423Z,52.57
2023-02-22T08:50:18.720Z,52.73
2023-02-22T08:52:20.279Z,52.42
2023-02-22T08:54:22.685Z,52.85
2023-02-22T08:56:23.993Z,52.87
2023-02-22T08:58:25.352Z,52.57
2023-02-22T09:00:26.645Z,52.91
2023-02-22T09:02:27.934Z,53.07
2023-02-22T09:04:29.244Z,53.19
2023-02-22T09:06:30.570Z,52.64
2023-02-22T09:08:31.910Z,52.89
2023-02-22T09:10:33.219Z,53.24
2023-02-22T09:12:34.555Z,52.93
2023-02-22T09:14:35.956Z,53.02
2023-02-22T09:16:38.123Z,53.23
2023-02-22T09:18:44.305Z,53.50
2023-02-22T09:20:46.039Z,53.31
2023-02-22T09:22:47.326Z,53.37
2023-02-22T09:24:48.633Z,53.25
2023-02-22T09:26:54.161Z,53.83
2023-02-22T09:28:55.532Z,53.36
2023-02-22T09:30:56.850Z,53.47
2023-02-22T09:32:58.288Z,53.63
2023-02-22T09:34:59.717Z,53.46
2023-02-22T09:37:01.036Z,53.82
2023-02-22T09:39:02.431Z,53.94
2023-02-22T09:41:03.742Z,53.85
2023-02-22T09:43:05.113Z,53.52
2023-02-22T09:45:06.441Z,53.62
2023-02-22T09:47:10.679Z,53.58
2023-02-22T09:49:13.893Z,53.73
2023-02-22T09:51:15.230Z,53.65
2023-02-22T09:53:17.875Z,53.19
2023-02-22T09:55:19.199Z,53.46
2023-02-22T09:57:20.515Z,53.06
2023-02-22T09:59:21.888Z,52.98
2023-02-22T10:01:23.226Z,53.12
2023-02-22T10:03:24.593Z,52.92
2023-02-22T10:05:27.602Z,52.77
2023-02-22T10:07:28.964Z,52.92
2023-02-22T10:09:30.476Z,52.61
2023-02-22T10:11:31.763Z,52.62
2023-02-22T10:13:34.703Z,52.66
2023-02-22T10:15:37.142Z,52.40
2023-02-22T10:17:39.335Z,52.36
2023-02-22T10:19:41.111Z,52.19
2023-02-22T10:21:42.618Z,52.58
2023-02-22T10:23:43.918Z,52.63
2023-02-22T10:25:45.233Z,52.30
2023-02-22T10:27:47.914Z,52.57
2023-02-22T10:29:49.217Z,52.33
2023-02-22T10:31:50.675Z,52.67
2023-02-22T10:33:52.044Z,52.36
2023-02-22T10:35:53.701Z,52.47
2023-02-22T10:37:55.008Z,52.44
2023-02-22T10:39:56.336Z,52.41
2023-02-22T10:41:57.700Z,52.65
2023-02-22T10:43:59.027Z,52.57
2023-02-22T10:46:05.057Z,52.89
2023-02-22T10:48:08.628Z,52.93
2023-02-22T10:50:10.028Z,52.66
2023-02-22T10:52:11.321Z,52.85
2023-02-22T10:54:12.620Z,53.16
2023-02-22T10:56:14.078Z,52.79
2023-02-22T10:58:15.387Z,53.28
2023-02-22T11:00:19.821Z,53.23
2023-02-22T11:02:21.298Z,52.89
2023-02-22T11:04:22.613Z,53.21
2023-02-22T11:06:23.935Z,53.14
2023-02-22T11:08:25.308Z,53.23
2023-02-22T11:10:27.405Z,53.37
2023-02-22T11:12:28.752Z,53.59
2023-02-22T11:14:30.257Z,53.57
2023-02-22T11:16:31.634Z,53.35
2023-02-22T11:18:35.785Z,53.48
2023-02-22T11:20:38.508Z,53.07
2023-02-22T11:22:41.082Z,53.04
2023-02-22T11:24:49.030Z,53.22
2023-02-22T11:26:50.771Z,53.44
2023-02-22T11:28:56.161Z,52.96
2023-02-22T11:30:57.619Z,52.95
2023-02-22T11:32:59.077Z,52.84
2023-02-22T11:35:09.015Z,52.90
2023-02-22T11:37:10.786Z,53.11
2023-02-22T11:39:12.236Z,52.81
2023-02-22T11:41:16.712Z,53.09
2023-02-22T11:43:18.331Z,52.90
2023-02-22T11:45:21.377Z,52.54
2023-02-22T11:47:23.635Z,52.72
2023-02-22T11:49:25.023Z,52.60
2023-02-22T11:51:26.324Z,52.50
2023-02-22T11:53:27.822Z,52.45
2023-02-22T11:55:42.284Z,52.38
2023-02-22T11:57:46.582Z,52.41
2023-02-22T11:59:47.977Z,52.35
2023-02-22T12:01:49.327Z,52.33
2023-02-22T12:03:50.676Z,52.22
2023-02-22T12:06:02.491Z,52.38
2023-02-22T12:08:17.536Z,52.14
2023-02-22T12:10:20.200Z,52.23
2023-02-22T12:12:21.522Z,52.52
2023-02-22T12:14:22.864Z,52.50
2023-02-22T12:16:24.820Z,52.57
2023-02-22T12:18:26.111Z,52.25
2023-02-22T12:20:27.449Z,52.17
2023-02-22T12:22:28.773Z,52.08
2023-02-22T12:24:30.073Z,52.66
2023-02-22T12:26:31.387Z,52.24
2023-02-22T12:28:32.700Z,52.21
2023-02-22T12:30:34.175Z,52.31
2023-02-22T12:32:38.490Z,52.23
2023-02-22T12:34:41.411Z,52.59
2023-02-22T12:36:42.866Z,52.38
2023-02-22T12:38:44.380Z,52.51
2023-02-22T12:40:45.754Z,52.55
2023-02-22T12:42:47.071Z,52.32
2023-02-22T12:44:48.835Z,52.27
2023-02-22T12:46:50.757Z,52.72
2023-02-22T12:48:52.081Z,52.50
2023-02-22T12:50:53.423Z,52.55
2023-02-22T12:52:54.743Z,52.81
2023-02-22T12:54:56.419Z,52.60
2023-02-22T12:56:57.733Z,52.42
2023-02-22T12:59:00.117Z,52.78
2023-02-22T13:01:01.457Z,52.47
2023-02-22T13:03:03.206Z,52.85
2023-02-22T13:05:04.528Z,52.82
2023-02-22T13:07:05.881Z,52.40
2023-02-22T13:09:07.215Z,52.70
2023-02-22T13:11:08.530Z,52.79
2023-02-22T13:13:10.156Z,52.66
2023-02-22T13:15:12.814Z,52.34
2023-02-22T13:17:14.855Z,52.43
2023-02-22T13:19:16.158Z,52.39
2023-02-22T13:21:17.836Z,52.15
2023-02-22T13:23:19.491Z,52.40
2023-02-22T13:25:20.824Z,52.66
2023-02-22T13:27:22.788Z,52.06
2023-02-22T13:29:24.710Z,52.46
2023-02-22T13:31:26.739Z,52.58
2023-02-22T13:33:28.284Z,52.18
2023-02-22T13:35:29.762Z,52.27
2023-02-22T13:37:31.095Z,52.05
2023-02-22T13:39:32.421Z,52.23
2023-02-22T13:41:33.708Z,52.29
2023-02-22T13:43:35.003Z,52.05
2023-02-22T13:45:36.348Z,52.05
2023-02-22T13:47:37.907Z,52.10
2023-02-22T13:49:39.216Z,52.03
2023-02-22T13:51:40.579Z,52.41
2023-02-22T13:53:43.787Z,52.01
2023-02-22T13:55:45.139Z,52.13
2023-02-22T13:57:48.712Z,51.93
2023-02-22T13:59:50.038Z,49.40
2023-02-22T14:01:53.408Z,49.89
2023-02-22T14:03:54.793Z,50.44
2023-02-22T14:05:57.647Z,49.23
2023-02-22T14:07:58.956Z,49.71
2023-02-22T14:10:02.299Z,49.51
2023-02-22T14:12:03.623Z,49.25
2023-02-22T14:14:04.937Z,49.76
2023-02-22T14:16:06.312Z,49.98
2023-02-22T14:18:10.682Z,49.85
2023-02-22T14:20:14.805Z,49.78
2023-02-22T14:22:16.261Z,50.82
2023-02-22T14:24:18.378Z,50.92
2023-02-22T14:26:19.903Z,51.13
2023-02-22T14:28:21.365Z,51.04
2023-02-22T14:30:24.830Z,51.40
2023-02-22T14:32:30.461Z,51.41
2023-02-22T14:34:31.831Z,51.94
2023-02-22T14:36:34.179Z,51.00
2023-02-22T14:38:35.492Z,51.51
2023-02-22T14:40:36.833Z,51.30
2023-02-22T14:42:38.392Z,50.60
2023-02-22T14:44:40.087Z,50.95
2023-02-22T14:46:41.670Z,51.64
2023-02-22T14:48:43.161Z,51.85
2023-02-22T14:50:44.582Z,51.61
2023-02-22T14:52:46.519Z,51.13
2023-02-22T14:54:47.874Z,52.10
2023-02-22T14:56:49.260Z,50.92
2023-02-22T14:58:50.603Z,52.29
2023-02-22T15:00:53.023Z,52.75
2023-02-22T15:02:57.360Z,52.60
2023-02-22T15:04:58.795Z,52.83
2023-02-22T15:07:00.143Z,53.22
2023-02-22T15:09:02.183Z,53.48
2023-02-22T15:11:03.547Z,53.44
2023-02-22T15:13:13.993Z,53.69
2023-02-22T15:15:15.300Z,53.69
2023-02-22T15:17:16.600Z,53.73
2023-02-22T15:19:25.128Z,53.95
2023-02-22T15:21:26.956Z,53.90
2023-02-22T15:23:30.366Z,53.61
2023-02-22T15:25:31.847Z,53.93
2023-02-22T15:27:37.166Z,54.04
2023-02-22T15:29:39.007Z,54.10
2023-02-22T15:31:47.095Z,54.12
2023-02-22T15:33:53.220Z,53.69
2023-02-22T15:35:54.526Z,54.06
2023-02-22T15:37:55.875Z,53.55
2023-02-22T15:40:00.260Z,53.31
2023-02-22T15:42:02.068Z,53.75
2023-02-22T15:44:17.546Z,53.19
2023-02-22T15:46:25.554Z,53.10
2023-02-22T15:48:31.674Z,53.33
2023-02-22T15:50:35.994Z,54.48
2023-02-22T15:52:43.490Z,53.86
2023-02-22T15:54:44.820Z,52.52
2023-02-22T15:56:46.132Z,52.99
2023-02-22T15:58:47.728Z,52.88
2023-02-22T16:00:50.006Z,52.69
2023-02-22T16:02:51.395Z,53.02
2023-02-22T16:04:59.589Z,51.86
2023-02-22T16:07:01.234Z,51.56
2023-02-22T16:09:02.541Z,51.95
2023-02-22T16:11:03.881Z,53.48
2023-02-22T16:13:05.226Z,51.95
2023-02-22T16:15:06.614Z,51.91
2023-02-22T16:17:07.971Z,52.55
2023-02-22T16:19:09.270Z,52.83
2023-02-22T16:21:12.905Z,54.16
2023-02-22T16:23:14.272Z,52.68
2023-02-22T16:25:16.661Z,52.33
2023-02-22T16:27:18.678Z,52.43
2023-02-22T16:29:20.036Z,52.59
2023-02-22T16:31:21.746Z,52.68
2023-02-22T16:33:25.891Z,52.65
2023-02-22T16:35:28.824Z,52.36
2023-02-22T16:37:30.410Z,52.43
2023-02-22T16:39:36.080Z,53.14
2023-02-22T16:41:37.435Z,52.41
2023-02-22T16:43:38.977Z,53.41
2023-02-22T16:45:42.493Z,53.26
2023-02-22T16:47:44.011Z,52.97
2023-02-22T16:49:45.303Z,52.88
2023-02-22T16:51:46.759Z,53.08
2023-02-22T16:53:48.865Z,53.37
2023-02-22T16:55:50.291Z,53.14
2023-02-22T16:57:51.614Z,53.58
2023-02-22T16:59:58.362Z,53.50
2023-02-22T17:02:07.510Z,52.99
2023-02-22T17:04:08.862Z,52.76
2023-02-22T17:06:10.549Z,52.89
2023-02-22T17:08:11.851Z,52.35
2023-02-22T17:10:13.152Z,52.44
2023-02-22T17:12:14.601Z,52.56
2023-02-22T17:14:15.936Z,52.08
2023-02-22T17:16:17.765Z,52.33
2023-02-22T17:18:22.722Z,52.15
2023-02-22T17:20:30.120Z,51.91
2023-02-22T17:22:31.523Z,50.49
2023-02-22T17:24:34.080Z,51.85
2023-02-22T17:26:35.384Z,51.88
2023-02-22T17:28:36.716Z,52.29
2023-02-22T17:30:38.304Z,52.43
2023-02-22T17:32:39.650Z,51.49
2023-02-22T17:34:40.947Z,51.26
2023-02-22T17:36:42.293Z,51.39
2023-02-22T17:38:43.627Z,51.88
2023-02-22T17:40:45.329Z,52.09
2023-02-22T17:42:49.291Z,52.82
2023-02-22T17:44:50.577Z,53.35
2023-02-22T17:46:53.041Z,52.49
2023-02-22T17:49:00.101Z,52.15
2023-02-22T17:51:02.147Z,52.12
2023-02-22T17:53:03.578Z,52.64
2023-02-22T17:55:04.871Z,52.71
2023-02-22T17:57:06.177Z,52.49
2023-02-22T17:59:14.775Z,52.43
2023-02-22T18:01:18.275Z,52.38
2023-02-22T18:03:21.736Z,51.89
2023-02-22T18:05:23.111Z,51.91
2023-02-22T18:07:25.453Z,52.27
2023-02-22T18:09:26.823Z,52.66
2023-02-22T18:11:32.741Z,52.53
2023-02-22T18:13:34.081Z,52.39
2023-02-22T18:15:35.648Z,51.21
2023-02-22T18:17:36.995Z,51.16
2023-02-22T18:19:38.707Z,52.14
2023-02-22T18:21:40.039Z,51.82
2023-02-22T18:23:41.364Z,52.36
2023-02-22T18:25:43.530Z,53.14
2023-02-22T18:27:44.855Z,53.49
2023-02-22T18:29:46.147Z,52.85
2023-02-22T18:31:47.440Z,52.90
2023-02-22T18:33:48.785Z,52.80
2023-02-22T18:35:52.299Z,52.60
2023-02-22T18:37:56.219Z,52.39
2023-02-22T18:39:57.515Z,52.59
2023-02-22T18:42:00.045Z,52.86
2023-02-22T18:44:03.220Z,52.92
2023-02-22T18:46:04.574Z,52.96
2023-02-22T18:48:05.951Z,52.77
2023-02-22T18:50:13.085Z,52.50
2023-02-22T18:52:18.354Z,52.28
2023-02-22T18:54:19.726Z,51.79
2023-02-22T18:56:21.872Z,52.45
2023-02-22T18:58:23.520Z,51.07
2023-02-22T19:00:28.649Z,51.50
2023-02-22T19:02:36.221Z,51.61
2023-02-22T19:04:40.972Z,51.66
2023-02-22T19:06:45.222Z,52.31
2023-02-22T19:08:52.935Z,52.68
2023-02-22T19:10:54.243Z,52.86
2023-02-22T19:12:55.583Z,53.16
2023-02-22T19:14:59.692Z,53.52
2023-02-22T19:17:02.791Z,53.93
2023-02-22T19:19:04.171Z,54.00
2023-02-22T19:21:08.605Z,53.67
2023-02-22T19:23:13.108Z,53.72
2023-02-22T19:25:14.406Z,54.02
2023-02-22T19:27:15.703Z,54.08
2023-02-22T19:29:22.200Z,53.73
2023-02-22T19:31:26.310Z,53.26
2023-02-22T19:33:27.801Z,53.56
2023-02-22T19:35:33.146Z,53.60
2023-02-22T19:37:35.555Z,53.43
2023-02-22T19:39:38.431Z,52.83
2023-02-22T19:41:39.724Z,53.14
2023-02-22T19:43:41.059Z,53.01
2023-02-22T19:45:45.164Z,53.00
2023-02-22T19:47:46.554Z,52.95
2023-02-22T19:49:47.898Z,52.48
2023-02-22T19:51:49.326Z,52.68
2023-02-22T19:53:53.649Z,52.49
2023-02-22T19:55:54.948Z,52.64
2023-02-22T19:57:56.248Z,53.40
2023-02-22T19:59:57.699Z,51.24
2023-02-22T20:01:59.095Z,50.73
2023-02-22T20:04:00.538Z,49.47
2023-02-22T20:06:01.939Z,49.71
2023-02-22T20:08:03.257Z,49.41
2023-02-22T20:10:04.640Z,49.30
2023-02-22T20:12:08.832Z,50.08
2023-02-22T20:14:10.160Z,50.74
2023-02-22T20:16:15.596Z,49.63
2023-02-22T20:18:17.056Z,50.94
2023-02-22T20:20:21.279Z,49.90
2023-02-22T20:22:22.574Z,50.35
2023-02-22T20:24:23.897Z,49.71
2023-02-22T20:26:25.220Z,49.69
2023-02-22T20:28:26.575Z,50.48
2023-02-22T20:30:27.872Z,50.86
2023-02-22T20:32:30.409Z,51.36
2023-02-22T20:34:33.331Z,51.32
2023-02-22T20:36:37.619Z,51.81
2023-02-22T20:38:38.948Z,52.02
2023-02-22T20:40:41.127Z,50.89
2023-02-22T20:42:44.776Z,51.44
2023-02-22T20:44:49.486Z,51.93
2023-02-22T20:46:50.839Z,52.17
2023-02-22T20:48:55.383Z,52.15
2023-02-22T20:50:56.717Z,52.76
2023-02-22T20:52:58.867Z,52.05
2023-02-22T20:55:01.832Z,52.22
2023-02-22T20:57:03.225Z,51.98
2023-02-22T20:59:04.568Z,51.85
2023-02-22T21:01:05.978Z,52.42
2023-02-22T21:03:07.334Z,50.68
2023-02-22T21:05:09.647Z,51.34
2023-02-22T21:07:11.003Z,51.02
2023-02-22T21:09:12.344Z,51.82
2023-02-22T21:11:13.716Z,51.91
2023-02-22T21:13:18.051Z,51.96
2023-02-22T21:15:19.359Z,51.39
2023-02-22T21:17:28.754Z,52.05
2023-02-22T21:19:32.015Z,52.72
2023-02-22T21:21:33.320Z,52.22
2023-02-22T21:23:34.618Z,52.51
2023-02-22T21:25:35.917Z,53.00
2023-02-22T21:27:37.207Z,52.70
2023-02-22T21:29:38.560Z,53.33
2023-02-22T21:31:40.208Z,52.48
2023-02-22T21:33:41.927Z,53.23
2023-02-22T21:35:43.441Z,53.82
2023-02-22T21:37:46.293Z,53.53
2023-02-22T21:39:47.601Z,53.53
2023-02-22T21:41:48.898Z,53.45
2023-02-22T21:43:56.331Z,51.42
2023-02-22T21:46:02.326Z,44.51
2023-02-22T21:48:03.643Z,49.18
2023-02-22T21:50:05.416Z,48.48
2023-02-22T21:52:07.863Z,48.65
2023-02-22T21:54:09.190Z,49.13
2023-02-22T21:56:10.495Z,47.28
2023-02-22T21:58:12.219Z,48.96
2023-02-22T22:00:29.027Z,49.02
2023-02-22T22:02:30.350Z,48.73
2023-02-22T22:04:31.685Z,49.21
2023-02-22T22:06:38.735Z,48.94
2023-02-22T22:08:40.137Z,49.54
2023-02-22T22:10:41.424Z,49.27
2023-02-22T22:12:46.179Z,49.60
2023-02-22T22:14:49.329Z,49.76
2023-02-22T22:16:50.684Z,50.01
2023-02-22T22:18:51.990Z,50.27
2023-02-22T22:20:53.732Z,50.25
2023-02-22T22:22:55.088Z,50.64
2023-02-22T22:24:56.470Z,51.10
2023-02-22T22:27:03.542Z,50.75
2023-02-22T22:29:04.908Z,51.45
2023-02-22T22:31:06.264Z,51.56
2023-02-22T22:33:11.254Z,51.91
2023-02-22T22:35:14.628Z,52.12
2023-02-22T22:37:16.286Z,51.77
2023-02-22T22:39:20.913Z,51.96
2023-02-22T22:41:22.336Z,52.65
2023-02-22T22:43:23.643Z,52.60
2023-02-22T22:45:25.913Z,52.88
2023-02-22T22:47:27.243Z,53.02
2023-02-22T22:49:31.217Z,52.98
2023-02-22T22:51:33.723Z,53.69
2023-02-22T22:53:35.091Z,53.67
2023-02-22T22:55:36.396Z,53.45
2023-02-22T22:57:37.754Z,53.66
2023-02-22T22:59:39.745Z,54.03
2023-02-22T23:01:41.131Z,53.79
2023-02-22T23:03:43.518Z,54.44
2023-02-22T23:05:46.269Z,54.14
2023-02-22T23:07:47.610Z,54.47
2023-02-22T23:09:48.923Z,54.61
2023-02-22T23:11:51.003Z,55.11
2023-02-22T23:13:52.445Z,54.84
2023-02-22T23:15:54.771Z,55.15
2023-02-22T23:17:56.301Z,55.15
2023-02-22T23:19:57.713Z,55.31
2023-02-22T23:21:59.333Z,54.79
2023-02-22T23:24:00.631Z,55.47
2023-02-22T23:26:01.949Z,55.22
2023-02-22T23:28:03.308Z,55.54
2023-02-22T23:30:04.607Z,55.42
2023-02-22T23:32:06.065Z,55.27
2023-02-22T23:34:11.085Z,55.50
2023-02-22T23:36:12.502Z,55.52
2023-02-22T23:38:13.849Z,55.56
2023-02-22T23:40:18.786Z,55.38
2023-02-22T23:42:22.964Z,55.63
2023-02-22T23:44:24.273Z,55.55
2023-02-22T23:46:27.002Z,55.13
2023-02-22T23:48:30.125Z,55.62
2023-02-22T23:50:31.469Z,55.44
2023-02-22T23:52:32.801Z,55.65
2023-02-22T23:54:40.214Z,55.54
2023-02-22T23:56:47.179Z,55.62
2023-02-22T23:58:50.459Z,55.55
